Time;durP1;ratioP1;P1;durP2;ratioP2;P2;SDS_P1;SDS_P2;PMS_P1;PMS_P2;Temp;Humidity;BMP_temperature;BMP_pressure;BME280_temperature;BME280_humidity;BME280_pressure;Samples;Min_cycle;Max_cycle;Signal;HPM_P1;HPM_P2
2022/07/15 00:01:05;;;;;;;10.35;6.00;;;26.70;99.90;;;;;;1925469;72;21525;-80
2022/07/15 00:03:36;;;;;;;15.03;5.80;;;26.70;99.90;;;;;;1911916;72;21114;-79
2022/07/15 00:06:07;;;;;;;13.15;5.87;;;26.70;99.90;;;;;;1915614;72;21184;-80
2022/07/15 00:08:40;;;;;;;13.25;5.83;;;26.80;99.90;;;;;;1915438;72;21074;-80
2022/07/15 00:11:10;;;;;;;13.40;5.17;;;26.80;99.90;;;;;;1900456;74;21643;-80
2022/07/15 00:13:42;;;;;;;14.73;6.37;;;26.80;99.90;;;;;;1894144;74;21134;-80
2022/07/15 00:16:14;;;;;;;14.45;5.70;;;26.80;99.90;;;;;;1915227;72;21125;-80
2022/07/15 00:18:45;;;;;;;9.85;4.92;;;26.80;99.90;;;;;;1915818;72;21072;-79
2022/07/15 00:21:16;;;;;;;9.78;5.80;;;26.80;99.90;;;;;;1921910;72;21228;-79
2022/07/15 00:23:47;;;;;;;12.65;5.85;;;26.80;99.90;;;;;;1917894;72;21162;-80
2022/07/15 00:26:18;;;;;;;12.53;6.22;;;26.80;99.90;;;;;;1939021;72;21189;-80
2022/07/15 00:28:49;;;;;;;11.48;6.03;;;26.80;99.90;;;;;;1942004;72;21062;-80
2022/07/15 00:31:20;;;;;;;8.53;5.47;;;26.80;99.90;;;;;;1931161;73;21153;-80
2022/07/15 00:33:51;;;;;;;11.20;5.58;;;26.80;99.90;;;;;;1931517;73;21194;-79
2022/07/15 00:36:22;;;;;;;15.32;6.17;;;26.90;99.90;;;;;;1941764;73;21137;-80
2022/07/15 00:38:53;;;;;;;12.93;6.03;;;26.90;99.90;;;;;;1925615;73;21140;-80
2022/07/15 00:41:24;;;;;;;13.62;6.62;;;26.90;99.90;;;;;;1924983;73;21081;-80
2022/07/15 00:43:57;;;;;;;10.40;5.97;;;26.90;99.90;;;;;;1927014;73;21657;-80
2022/07/15 00:46:28;;;;;;;13.32;6.33;;;27.00;99.90;;;;;;1946614;73;21186;-79
2022/07/15 00:49:00;;;;;;;13.30;6.28;;;27.00;99.90;;;;;;1926208;73;21173;-80
2022/07/15 00:51:33;;;;;;;16.50;5.67;;;27.10;99.90;;;;;;1923643;73;21183;-80
2022/07/15 00:54:05;;;;;;;10.53;4.70;;;27.10;99.90;;;;;;1930646;73;21133;-79
2022/07/15 00:56:39;;;;;;;11.53;5.35;;;27.20;99.90;;;;;;1924287;73;21129;-80
2022/07/15 00:59:13;;;;;;;9.38;4.85;;;27.20;99.90;;;;;;1869722;76;21075;-80
2022/07/15 01:01:46;;;;;;;8.20;4.60;;;27.40;99.90;;;;;;1871050;74;21117;-79
2022/07/15 01:04:19;;;;;;;10.38;4.22;;;27.40;99.90;;;;;;1884894;76;21213;-79
2022/07/15 01:06:52;;;;;;;9.38;4.50;;;27.50;99.90;;;;;;1827371;76;21127;-80
2022/07/15 01:09:23;;;;;;;7.97;4.55;;;27.60;99.90;;;;;;1860718;76;21121;-79
2022/07/15 01:11:54;;;;;;;11.78;4.28;;;27.70;99.90;;;;;;1886912;76;21243;-79
2022/07/15 01:14:25;;;;;;;11.85;4.65;;;27.80;99.90;;;;;;1891094;76;21527;-79
2022/07/15 01:16:56;;;;;;;9.48;4.10;;;27.80;99.90;;;;;;1890425;76;21209;-79
2022/07/15 01:19:27;;;;;;;10.18;4.83;;;27.80;99.90;;;;;;1864491;76;21209;-79
2022/07/15 01:21:58;;;;;;;9.03;4.12;;;27.90;99.90;;;;;;1876695;76;21216;-79
2022/07/15 01:24:29;;;;;;;9.13;3.92;;;28.00;99.90;;;;;;1890035;76;21166;-79
2022/07/15 01:27:00;;;;;;;8.28;3.58;;;28.00;99.90;;;;;;1877597;75;21103;-79
2022/07/15 01:29:31;;;;;;;11.12;3.98;;;28.00;99.90;;;;;;1860128;76;21596;-80
2022/07/15 01:32:03;;;;;;;9.93;4.03;;;28.10;99.90;;;;;;1867548;76;21178;-80
2022/07/15 01:34:34;;;;;;;13.03;4.10;;;28.20;99.90;;;;;;1867961;76;21111;-81
2022/07/15 01:37:05;;;;;;;8.15;4.25;;;28.20;99.90;;;;;;1873953;76;21731;-80
2022/07/15 01:39:36;;;;;;;10.60;4.58;;;28.30;99.90;;;;;;1877099;76;21185;-80
2022/07/15 01:42:07;;;;;;;10.68;4.10;;;28.40;99.90;;;;;;1867981;76;21166;-80
2022/07/15 01:44:39;;;;;;;8.20;3.72;;;28.50;99.90;;;;;;1864540;76;21135;-80
2022/07/15 01:47:13;;;;;;;10.13;3.77;;;28.50;99.90;;;;;;1873374;76;21055;-79
2022/07/15 01:49:43;;;;;;;9.43;4.15;;;28.60;99.90;;;;;;1888470;76;21166;-79
2022/07/15 01:52:14;;;;;;;9.55;4.03;;;28.70;99.90;;;;;;1883741;76;21126;-80
2022/07/15 01:54:45;;;;;;;11.90;4.37;;;28.70;99.90;;;;;;1865447;76;21244;-79
2022/07/15 01:57:16;;;;;;;8.13;3.15;;;28.80;99.90;;;;;;1858405;77;21093;-79
2022/07/15 01:59:47;;;;;;;10.93;4.10;;;28.80;99.90;;;;;;1872734;76;21566;-82
2022/07/15 02:02:21;;;;;;;9.95;4.08;;;28.90;99.90;;;;;;1879415;76;21177;-79
2022/07/15 02:04:52;;;;;;;9.15;3.92;;;29.00;99.90;;;;;;1863333;76;21167;-79
2022/07/15 02:07:24;;;;;;;10.58;3.60;;;29.00;99.90;;;;;;1873741;76;21063;-79
2022/07/15 02:09:55;;;;;;;6.05;3.35;;;29.10;99.90;;;;;;1879034;76;21184;-80
2022/07/15 02:12:26;;;;;;;9.73;3.98;;;29.20;99.90;;;;;;1854397;76;21137;-80
2022/07/15 02:14:56;;;;;;;8.83;3.95;;;29.20;99.90;;;;;;1880460;76;21127;-80
2022/07/15 02:17:27;;;;;;;6.60;3.40;;;29.30;99.90;;;;;;1857464;76;21104;-79
2022/07/15 02:19:58;;;;;;;6.87;3.02;;;29.40;99.90;;;;;;1873663;76;21253;-79
2022/07/15 02:22:29;;;;;;;12.50;3.20;;;29.60;99.90;;;;;;1861075;76;21130;-80
2022/07/15 02:25:01;;;;;;;9.30;3.45;;;29.70;99.90;;;;;;1848278;76;22205;-79
2022/07/15 02:27:32;;;;;;;10.13;4.10;;;29.80;99.90;;;;;;1881390;74;21201;-81
2022/07/15 02:30:03;;;;;;;6.28;3.42;;;29.90;99.90;;;;;;1887357;74;21195;-72
2022/07/15 02:32:35;;;;;;;7.67;3.27;;;29.90;99.90;;;;;;1879983;76;21703;-72
2022/07/15 02:35:06;;;;;;;8.78;2.90;;;29.80;99.90;;;;;;1870121;76;21645;-72
2022/07/15 02:37:37;;;;;;;9.83;3.33;;;29.80;99.90;;;;;;1856784;76;21122;-72
2022/07/15 02:40:09;;;;;;;6.90;3.25;;;29.80;99.90;;;;;;1865268;77;21595;-72
2022/07/15 02:42:41;;;;;;;7.10;3.17;;;29.70;99.90;;;;;;1860433;76;21162;-72
2022/07/15 02:45:12;;;;;;;4.60;1.90;;;29.70;99.90;;;;;;1849617;77;21740;-72
2022/07/15 02:47:43;;;;;;;4.78;2.10;;;29.70;99.90;;;;;;1850913;76;21139;-72
2022/07/15 02:50:15;;;;;;;7.30;2.85;;;29.90;99.90;;;;;;1836972;76;21222;-70
2022/07/15 02:52:46;;;;;;;7.12;2.67;;;30.00;99.90;;;;;;1859009;76;21138;-72
2022/07/15 02:55:18;;;;;;;6.83;2.30;;;30.10;99.90;;;;;;1886793;75;21093;-72
2022/07/15 02:57:50;;;;;;;8.68;2.92;;;30.40;99.90;;;;;;1846173;77;21234;-72
2022/07/15 03:00:21;;;;;;;6.42;2.85;;;30.40;99.90;;;;;;1850894;77;21654;-72
2022/07/15 03:02:52;;;;;;;4.70;2.45;;;30.40;99.90;;;;;;1865015;77;21689;-72
2022/07/15 03:05:23;;;;;;;7.15;2.90;;;30.30;99.90;;;;;;1865255;77;21167;-72
2022/07/15 03:07:55;;;;;;;6.00;2.90;;;30.10;99.90;;;;;;1857346;76;21646;-73
2022/07/15 03:10:26;;;;;;;7.58;2.70;;;30.10;99.90;;;;;;1872708;76;21185;-72
2022/07/15 03:12:56;;;;;;;8.18;3.35;;;30.00;99.90;;;;;;1880373;76;21076;-72
2022/07/15 03:15:28;;;;;;;6.58;2.92;;;29.90;99.90;;;;;;1895581;76;21088;-72
2022/07/15 03:18:02;;;;;;;5.45;2.47;;;29.80;99.90;;;;;;1885414;75;21149;-73
2022/07/15 03:20:33;;;;;;;7.37;3.22;;;29.80;99.90;;;;;;1859859;76;21134;-72
2022/07/15 03:23:04;;;;;;;6.62;2.90;;;29.80;99.90;;;;;;1887663;76;21162;-72
2022/07/15 03:25:35;;;;;;;7.97;3.00;;;29.80;99.90;;;;;;1863061;76;21555;-73
2022/07/15 03:28:06;;;;;;;6.12;2.85;;;29.80;99.90;;;;;;1868100;75;21154;-72
2022/07/15 03:30:37;;;;;;;9.25;3.15;;;29.80;99.90;;;;;;1872635;76;21139;-71
2022/07/15 03:33:08;;;;;;;4.22;2.37;;;29.80;99.90;;;;;;1874396;76;21314;-71
2022/07/15 03:35:42;;;;;;;5.60;2.30;;;29.70;99.90;;;;;;1870429;76;21713;-72
2022/07/15 03:38:12;;;;;;;9.00;2.67;;;29.70;99.90;;;;;;1858129;76;21226;-71
2022/07/15 03:40:44;;;;;;;8.65;2.45;;;29.60;99.90;;;;;;1868092;76;21841;-72
2022/07/15 03:43:15;;;;;;;5.70;2.52;;;29.70;99.90;;;;;;1869068;76;21068;-72
2022/07/15 03:45:46;;;;;;;5.60;2.20;;;29.70;99.90;;;;;;1889453;76;21149;-72
2022/07/15 03:48:17;;;;;;;7.22;4.05;;;29.80;99.90;;;;;;1853466;75;21187;-72
2022/07/15 03:50:48;;;;;;;7.17;3.02;;;30.00;99.90;;;;;;1861910;76;21119;-72
2022/07/15 03:53:19;;;;;;;5.72;2.50;;;30.20;99.90;;;;;;1876424;75;21556;-73
2022/07/15 03:55:50;;;;;;;8.45;2.70;;;30.50;99.90;;;;;;1860039;75;21166;-73
2022/07/15 03:58:23;;;;;;;6.55;2.40;;;30.70;99.90;;;;;;1878798;75;21130;-74
2022/07/15 04:00:54;;;;;;;5.17;2.42;;;30.90;99.90;;;;;;1872081;76;21223;-74
2022/07/15 04:03:25;;;;;;;6.47;2.02;;;31.00;99.50;;;;;;1859295;76;21106;-73
2022/07/15 04:05:56;;;;;;;5.95;2.60;;;31.00;99.70;;;;;;1854599;76;21093;-72
2022/07/15 04:08:27;;;;;;;5.75;2.40;;;30.90;98.50;;;;;;1855785;76;21172;-73
2022/07/15 04:10:58;;;;;;;4.85;2.22;;;30.80;98.30;;;;;;1829711;77;21212;-72
2022/07/15 04:13:29;;;;;;;5.85;1.90;;;30.80;98.80;;;;;;1868486;76;21139;-72
2022/07/15 04:16:01;;;;;;;5.22;2.52;;;30.90;97.20;;;;;;1835702;77;21241;-72
2022/07/15 04:18:32;;;;;;;6.28;2.10;;;31.00;97.70;;;;;;1863830;76;21554;-73
2022/07/15 04:21:03;;;;;;;8.25;2.00;;;31.10;97.50;;;;;;1891040;75;21157;-72
2022/07/15 04:23:34;;;;;;;5.40;2.05;;;31.20;96.50;;;;;;1862393;76;21669;-73
2022/07/15 04:26:05;;;;;;;3.40;1.62;;;31.40;96.00;;;;;;1827239;77;21140;-73
2022/07/15 04:28:43;;;;;;;8.20;1.90;;;;;;;;;;1860579;76;21186;-74
2022/07/15 04:31:14;;;;;;;6.42;2.90;;;31.50;95.70;;;;;;1860006;76;21217;-74
2022/07/15 04:33:45;;;;;;;7.65;2.15;;;31.60;96.30;;;;;;1859129;77;21148;-74
2022/07/15 04:38:59;;;;;;;4.12;2.27;;;31.80;95.70;;;;;;1897932;71;21746;-71
2022/07/15 04:41:30;;;;;;;7.22;2.17;;;31.70;95.80;;;;;;1857608;77;21145;-72
2022/07/15 04:44:01;;;;;;;9.35;2.10;;;31.60;96.10;;;;;;1890240;76;21147;-72
2022/07/15 04:46:31;;;;;;;3.22;1.87;;;31.50;96.40;;;;;;1890831;75;21583;-72
2022/07/15 04:51:38;;;;;;;5.28;2.10;;;31.50;96.10;;;;;;1887247;76;21620;-72
2022/07/15 04:54:13;;;;;;;5.50;1.80;;;31.60;95.80;;;;;;1906067;74;21539;-71
2022/07/15 04:56:44;;;;;;;4.10;1.45;;;31.70;95.50;;;;;;1890196;74;22056;-72
2022/07/15 04:59:16;;;;;;;2.85;1.60;;;31.80;94.90;;;;;;1854597;75;21167;-73
2022/07/15 05:01:47;;;;;;;5.67;1.80;;;31.70;95.30;;;;;;1895533;74;21626;-72
2022/07/15 05:04:18;;;;;;;4.30;1.70;;;31.60;96.00;;;;;;1898798;74;21076;-71
2022/07/15 05:06:49;;;;;;;2.55;1.32;;;31.50;95.10;;;;;;1919758;74;21103;-72
2022/07/15 05:09:20;;;;;;;5.45;1.50;;;31.40;95.30;;;;;;1912185;74;21198;-71
2022/07/15 05:11:50;;;;;;;4.33;1.52;;;31.30;95.00;;;;;;1911250;74;21553;-72
2022/07/15 05:14:21;;;;;;;3.40;1.55;;;31.20;95.20;;;;;;1897691;74;21138;-72
2022/07/15 05:16:53;;;;;;;7.87;2.17;;;31.10;95.90;;;;;;1897268;74;21085;-72
2022/07/15 05:19:24;;;;;;;5.95;2.40;;;31.00;96.00;;;;;;1891978;74;22594;-72
2022/07/15 05:21:55;;;;;;;3.62;1.92;;;31.00;95.80;;;;;;1909266;74;21144;-72
2022/07/15 05:24:26;;;;;;;4.40;2.33;;;31.00;95.90;;;;;;1901407;74;21167;-72
2022/07/15 05:26:59;;;;;;;5.28;2.42;;;31.00;96.10;;;;;;1915388;74;21575;-71
2022/07/15 05:29:29;;;;;;;8.20;1.90;;;31.00;96.10;;;;;;1916347;74;21184;-72
2022/07/15 05:32:00;;;;;;;3.52;1.92;;;31.00;96.10;;;;;;1876032;75;21157;-72
2022/07/15 05:34:32;;;;;;;4.85;1.90;;;31.00;96.10;;;;;;1850498;77;22312;-72
2022/07/15 05:37:03;;;;;;;5.37;2.80;;;31.10;95.60;;;;;;1872475;75;21234;-72
2022/07/15 05:39:35;;;;;;;6.40;1.75;;;31.00;95.60;;;;;;1865224;76;21159;-72
2022/07/15 05:42:06;;;;;;;5.95;1.80;;;31.10;95.90;;;;;;1838939;76;21233;-72
2022/07/15 05:44:37;;;;;;;3.72;1.60;;;31.00;95.20;;;;;;1902345;74;21080;-73
2022/07/15 05:47:08;;;;;;;3.80;1.70;;;31.00;95.70;;;;;;1894630;74;21149;-73
2022/07/15 05:49:41;;;;;;;4.30;1.72;;;31.00;95.60;;;;;;1891428;74;21609;-73
2022/07/15 05:52:15;;;;;;;6.72;2.10;;;30.90;96.00;;;;;;1911825;74;21164;-72
2022/07/15 05:54:46;;;;;;;6.08;1.82;;;30.90;96.10;;;;;;1895470;74;21123;-73
2022/07/15 05:57:18;;;;;;;6.67;3.98;;;30.90;96.30;;;;;;1907875;74;21218;-73
2022/07/15 05:59:49;;;;;;;4.58;1.85;;;30.80;96.60;;;;;;1891401;74;21075;-73
2022/07/15 06:02:20;;;;;;;4.62;1.90;;;30.80;96.30;;;;;;1915246;74;21566;-73
2022/07/15 06:04:51;;;;;;;4.17;2.12;;;30.80;96.40;;;;;;1893431;74;21618;-73
2022/07/15 06:07:22;;;;;;;4.33;1.70;;;30.80;96.70;;;;;;1916221;74;21093;-72
2022/07/15 06:09:53;;;;;;;4.28;1.47;;;30.70;96.20;;;;;;1911572;74;21150;-71
2022/07/15 06:12:24;;;;;;;5.40;2.25;;;30.70;96.40;;;;;;1913594;74;21641;-71
2022/07/15 06:14:55;;;;;;;6.58;1.82;;;30.70;96.80;;;;;;1904565;74;21140;-71
2022/07/15 06:17:26;;;;;;;7.22;2.17;;;30.60;97.10;;;;;;1896205;74;21225;-71
2022/07/15 06:19:57;;;;;;;5.97;1.80;;;30.70;97.10;;;;;;1909904;74;21602;-72
2022/07/15 06:22:28;;;;;;;4.03;2.08;;;30.60;97.10;;;;;;1889950;74;21702;-72
2022/07/15 06:25:00;;;;;;;8.05;3.42;;;30.60;96.90;;;;;;1902291;74;21712;-71
2022/07/15 06:27:32;;;;;;;4.58;2.08;;;30.60;97.00;;;;;;1914715;74;21174;-71
2022/07/15 06:30:02;;;;;;;5.72;1.70;;;30.60;97.00;;;;;;1906461;74;21217;-71
2022/07/15 06:32:33;;;;;;;4.05;2.37;;;30.60;97.10;;;;;;1913652;74;21143;-71
2022/07/15 06:35:08;;;;;;;4.45;2.15;;;30.50;97.10;;;;;;1917994;74;21107;-71
2022/07/15 06:37:39;;;;;;;5.97;2.37;;;30.50;97.00;;;;;;1897921;73;21476;-71
2022/07/15 06:40:11;;;;;;;5.90;2.87;;;30.50;97.40;;;;;;1896779;74;21144;-71
2022/07/15 06:42:42;;;;;;;8.33;4.80;;;30.50;97.50;;;;;;1897107;74;21588;-71
2022/07/15 06:45:13;;;;;;;14.83;6.95;;;30.50;98.00;;;;;;1893263;75;21289;-71
2022/07/15 06:47:45;;;;;;;10.10;3.08;;;30.40;98.00;;;;;;1893944;75;21109;-70
2022/07/15 06:50:15;;;;;;;3.98;1.90;;;30.40;97.90;;;;;;1893587;74;21120;-73
2022/07/15 06:52:48;;;;;;;2.77;1.72;;;30.40;97.60;;;;;;1884433;75;21144;-72
2022/07/15 06:55:20;;;;;;;5.75;2.08;;;30.40;97.60;;;;;;1892649;74;21127;-71
2022/07/15 06:57:52;;;;;;;6.78;2.58;;;30.40;97.60;;;;;;1893040;74;21288;-71
2022/07/15 07:00:23;;;;;;;6.87;2.75;;;30.30;97.90;;;;;;1907216;74;21185;-71
2022/07/15 07:02:54;;;;;;;8.70;3.80;;;30.30;98.40;;;;;;1871368;76;21095;-71
2022/07/15 07:05:26;;;;;;;6.42;2.83;;;30.20;98.60;;;;;;1887836;76;21134;-70
2022/07/15 07:07:58;;;;;;;8.90;2.67;;;30.10;98.90;;;;;;1873446;76;21724;-72
2022/07/15 07:10:32;;;;;;;11.35;3.70;;;30.00;99.30;;;;;;1884397;76;21704;-71
2022/07/15 07:13:03;;;;;;;14.00;6.42;;;29.90;99.50;;;;;;1868629;76;21199;-72
2022/07/15 07:15:34;;;;;;;14.80;5.90;;;29.80;99.90;;;;;;1886540;76;21225;-72
2022/07/15 07:18:09;;;;;;;13.50;5.10;;;29.60;99.90;;;;;;1882811;76;21073;-73
2022/07/15 07:20:43;;;;;;;11.53;4.78;;;29.30;99.90;;;;;;1871411;75;21218;-72
2022/07/15 07:23:12;;;;;;;8.55;3.62;;;29.00;99.90;;;;;;1875216;76;21626;-71
2022/07/15 07:25:44;;;;;;;4.80;1.65;;;28.50;99.90;;;;;;1871318;76;21096;-72
2022/07/15 07:28:14;;;;;;;6.70;2.47;;;28.10;99.90;;;;;;1912895;74;21076;-72
2022/07/15 07:30:46;;;;;;;9.50;3.42;;;27.90;99.90;;;;;;1846812;78;21218;-72
2022/07/15 07:33:24;;;;;;;6.65;2.92;;;27.60;99.90;;;;;;1861549;74;21585;-72
2022/07/15 07:35:54;;;;;;;6.17;2.35;;;27.30;99.90;;;;;;1885775;74;21845;-72
2022/07/15 07:38:31;;;;;;;3.37;1.22;;;27.00;99.90;;;;;;1889079;76;21172;-71
2022/07/15 07:41:05;;;;;;;3.50;1.50;;;26.90;99.90;;;;;;1894261;74;21646;-73
2022/07/15 07:43:37;;;;;;;5.25;1.90;;;27.00;99.90;;;;;;1890112;75;21212;-72
2022/07/15 07:46:11;;;;;;;10.08;2.10;;;27.00;99.90;;;;;;1884343;75;21733;-73
2022/07/15 07:48:42;;;;;;;5.45;2.17;;;27.00;99.90;;;;;;1879540;76;21152;-72
2022/07/15 07:51:16;;;;;;;5.85;3.00;;;27.10;99.90;;;;;;1840107;76;21633;-71
2022/07/15 07:53:48;;;;;;;6.22;2.20;;;27.10;99.90;;;;;;1906115;74;21096;-72
2022/07/15 07:56:22;;;;;;;5.28;2.00;;;27.20;99.90;;;;;;1876124;74;21147;-72
2022/07/15 07:58:55;;;;;;;4.95;1.77;;;27.30;99.90;;;;;;1892747;74;21073;-73
2022/07/15 08:01:28;;;;;;;6.03;2.55;;;27.40;99.90;;;;;;1901356;74;21143;-73
2022/07/15 08:04:05;;;;;;;7.62;3.05;;;27.50;99.90;;;;;;1870792;74;21070;-72
2022/07/15 08:06:39;;;;;;;7.75;2.87;;;27.60;99.90;;;;;;1886877;74;21097;-73
2022/07/15 08:09:10;;;;;;;6.62;3.25;;;27.60;99.90;;;;;;1886414;74;21176;-71
2022/07/15 08:11:40;;;;;;;12.35;5.10;;;27.60;99.90;;;;;;1899410;74;21731;-72
2022/07/15 08:14:29;;;;;;;7.42;3.70;;;27.70;99.90;;;;;;1864266;74;21146;-74
2022/07/15 08:17:01;;;;;;;5.45;2.75;;;27.70;99.90;;;;;;1882871;74;21166;-72
2022/07/15 08:19:32;;;;;;;8.50;3.83;;;27.70;99.90;;;;;;1888084;75;21248;-71
2022/07/15 08:22:03;;;;;;;7.08;4.22;;;27.80;99.90;;;;;;1895571;74;21182;-71
2022/07/15 08:24:35;;;;;;;7.85;3.75;;;27.80;99.90;;;;;;1875739;76;21236;-72
2022/07/15 08:27:10;;;;;;;4.53;2.80;;;27.80;99.90;;;;;;1888443;76;21139;-71
2022/07/15 08:29:41;;;;;;;9.88;5.60;;;27.90;99.90;;;;;;1816221;78;21165;-71
2022/07/15 08:32:13;;;;;;;7.10;3.77;;;27.90;99.90;;;;;;1890272;76;21151;-73
2022/07/15 08:34:44;;;;;;;11.10;6.33;;;27.90;99.90;;;;;;1889761;75;21229;-73
2022/07/15 08:37:16;;;;;;;10.63;4.42;;;27.80;99.90;;;;;;1871358;76;21654;-71
2022/07/15 08:39:47;;;;;;;23.12;16.00;;;27.60;99.90;;;;;;1820603;78;21168;-73
2022/07/15 08:42:25;;;;;;;11.30;7.00;;;27.60;99.90;;;;;;1889142;75;21590;-71
2022/07/15 08:44:54;;;;;;;10.32;5.90;;;27.60;99.90;;;;;;1841882;77;21659;-71
2022/07/15 08:47:25;;;;;;;7.62;3.92;;;27.60;99.90;;;;;;1887247;76;21076;-73
2022/07/15 08:49:59;;;;;;;10.58;6.72;;;27.60;99.90;;;;;;1837401;77;21719;-72
2022/07/15 08:52:32;;;;;;;7.65;4.78;;;27.60;99.90;;;;;;1887553;76;21147;-73
2022/07/15 08:55:03;;;;;;;7.83;3.87;;;27.60;99.90;;;;;;1821534;78;21192;-72
2022/07/15 08:57:34;;;;;;;7.00;3.98;;;27.60;99.90;;;;;;1881400;76;21146;-72
2022/07/15 09:00:11;;;;;;;8.58;4.47;;;27.60;99.90;;;;;;1850470;77;21183;-72
2022/07/15 09:02:40;;;;;;;7.92;5.75;;;27.60;99.90;;;;;;1809759;77;21150;-73
2022/07/15 09:05:13;;;;;;;18.37;12.10;;;27.50;99.90;;;;;;1881054;74;21088;-73
2022/07/15 09:07:47;;;;;;;9.33;5.05;;;27.40;99.90;;;;;;1886193;74;21638;-72
2022/07/15 09:10:18;;;;;;;20.85;15.90;;;27.30;99.90;;;;;;1827487;78;21595;-70
2022/07/15 09:12:52;;;;;;;21.77;13.60;;;27.20;99.90;;;;;;1883752;74;21221;-72
2022/07/15 09:15:25;;;;;;;8.43;5.70;;;27.10;99.90;;;;;;1855724;74;21213;-71
2022/07/15 09:17:59;;;;;;;7.50;5.35;;;27.00;99.90;;;;;;1855680;76;21108;-72
2022/07/15 09:20:31;;;;;;;10.32;6.35;;;27.00;99.90;;;;;;1886692;74;21575;-73
2022/07/15 09:23:03;;;;;;;17.35;9.48;;;27.00;99.90;;;;;;1880693;74;21182;-72
2022/07/15 09:25:36;;;;;;;11.75;8.03;;;27.10;99.90;;;;;;1824343;76;21180;-72
2022/07/15 09:28:09;;;;;;;15.75;7.92;;;27.10;99.90;;;;;;1791922;79;21293;-71
2022/07/15 09:36:01;;;;;;;9.05;7.40;;;27.30;99.90;;;;;;1786117;79;21145;-72
2022/07/15 09:38:26;;;;;;;11.88;6.03;;;27.40;99.90;;;;;;1888702;74;21605;-71
2022/07/15 09:40:56;;;;;;;14.60;9.03;;;27.40;99.90;;;;;;1880183;74;21233;-72
2022/07/15 09:43:28;;;;;;;13.18;7.97;;;27.40;99.90;;;;;;1888207;74;21137;-71
2022/07/15 09:46:01;;;;;;;11.55;7.40;;;27.50;99.90;;;;;;1831375;77;21625;-71
2022/07/15 09:48:35;;;;;;;11.70;8.23;;;27.50;99.90;;;;;;1834396;77;21702;-71
2022/07/15 09:51:07;;;;;;;15.55;8.83;;;27.50;99.90;;;;;;1897364;74;21155;-72
2022/07/15 09:53:40;;;;;;;18.50;14.65;;;27.50;99.90;;;;;;1891152;74;21115;-72
2022/07/15 09:56:13;;;;;;;10.40;6.22;;;27.50;99.90;;;;;;1887897;74;21680;-72
2022/07/15 09:58:48;;;;;;;8.48;5.67;;;27.50;99.90;;;;;;1844475;76;21144;-72
2022/07/15 10:01:22;;;;;;;11.00;6.00;;;27.60;99.90;;;;;;1880126;74;21194;-72
2022/07/15 10:03:57;;;;;;;5.95;4.37;;;27.60;99.90;;;;;;1885362;74;21708;-72
2022/07/15 10:06:29;;;;;;;5.28;3.80;;;27.70;99.90;;;;;;1883502;75;21159;-73
2022/07/15 10:09:01;;;;;;;10.15;4.53;;;27.70;99.90;;;;;;1856639;77;21223;-72
2022/07/15 10:11:35;;;;;;;7.22;4.35;;;27.80;99.90;;;;;;1889297;74;21642;-72
2022/07/15 10:14:08;;;;;;;7.12;4.20;;;27.80;99.90;;;;;;1886990;75;21178;-72
2022/07/15 10:16:44;;;;;;;7.43;5.10;;;27.90;99.90;;;;;;1906627;74;21123;-72
2022/07/15 10:19:18;;;;;;;10.88;5.20;;;27.90;99.90;;;;;;1888900;75;21216;-73
2022/07/15 10:21:51;;;;;;;10.25;5.55;;;28.00;99.90;;;;;;1885217;75;21220;-72
2022/07/15 10:24:25;;;;;;;10.85;6.30;;;28.10;99.90;;;;;;1887423;76;21691;-72
2022/07/15 10:26:58;;;;;;;10.88;7.25;;;28.20;99.90;;;;;;1888884;76;21170;-72
2022/07/15 10:29:31;;;;;;;15.55;9.23;;;28.30;99.90;;;;;;1886695;75;21103;-71
2022/07/15 10:32:03;;;;;;;17.30;11.93;;;28.30;99.90;;;;;;1889773;75;21784;-71
2022/07/15 10:34:37;;;;;;;30.75;23.22;;;28.40;99.90;;;;;;1890913;75;21181;-73
2022/07/15 10:37:13;;;;;;;12.03;8.88;;;28.30;99.90;;;;;;1891134;74;21118;-73
2022/07/15 10:39:44;;;;;;;11.38;7.37;;;28.30;99.90;;;;;;1888593;76;21118;-73
2022/07/15 10:42:17;;;;;;;11.45;6.75;;;28.20;99.90;;;;;;1888909;76;21111;-71
2022/07/15 10:44:51;;;;;;;14.13;9.00;;;28.20;99.90;;;;;;1889705;76;21614;-72
2022/07/15 10:47:22;;;;;;;30.88;20.10;;;28.20;99.90;;;;;;1846388;76;21145;-72
2022/07/15 10:49:54;;;;;;;13.68;9.28;;;28.20;99.90;;;;;;1871915;76;21655;-72
2022/07/15 10:52:27;;;;;;;10.38;7.05;;;28.20;99.90;;;;;;1875207;76;21124;-72
2022/07/15 10:55:01;;;;;;;10.63;7.28;;;28.20;99.90;;;;;;1834846;78;21758;-71
2022/07/15 10:57:34;;;;;;;9.03;6.35;;;28.20;99.90;;;;;;1887649;76;21163;-72
2022/07/15 11:00:06;;;;;;;11.88;6.35;;;28.10;99.90;;;;;;1871443;76;21175;-72
2022/07/15 11:02:37;;;;;;;10.65;6.08;;;28.10;99.90;;;;;;1875470;74;21113;-72
2022/07/15 11:05:10;;;;;;;8.05;6.33;;;28.00;99.90;;;;;;1884871;74;21135;-72
2022/07/15 11:07:42;;;;;;;8.78;6.62;;;28.10;99.90;;;;;;1843650;78;21270;-72
2022/07/15 11:10:15;;;;;;;10.23;7.00;;;28.00;99.90;;;;;;1885569;76;21808;-72
2022/07/15 11:12:48;;;;;;;13.15;8.28;;;28.00;99.90;;;;;;1859029;76;21089;-72
2022/07/15 11:15:24;;;;;;;11.25;7.85;;;28.00;99.90;;;;;;1869013;76;21135;-72
2022/07/15 11:17:56;;;;;;;11.10;7.50;;;28.00;99.90;;;;;;1878268;76;21163;-72
2022/07/15 11:20:31;;;;;;;12.23;8.85;;;28.00;99.90;;;;;;1888278;76;21216;-72
2022/07/15 11:23:06;;;;;;;11.45;8.43;;;28.00;99.90;;;;;;1878361;76;21571;-71
2022/07/15 11:25:39;;;;;;;16.35;9.25;;;28.00;99.90;;;;;;1878636;76;21598;-72
2022/07/15 11:28:12;;;;;;;14.80;9.33;;;28.10;99.90;;;;;;1878294;75;21103;-72
2022/07/15 11:30:53;;;;;;;15.83;9.78;;;28.10;99.90;;;;;;1879238;75;21615;-72
2022/07/15 11:33:21;;;;;;;18.17;10.32;;;28.10;99.90;;;;;;1894299;74;21123;-72
2022/07/15 11:35:54;;;;;;;14.60;9.08;;;28.10;99.90;;;;;;1878676;76;21536;-72
2022/07/15 11:38:29;;;;;;;15.35;8.10;;;28.10;99.90;;;;;;1890632;76;21083;-72
2022/07/15 11:46:08;;;;;;;10.95;6.62;;;28.10;99.90;;;;;;1881487;75;21665;-71
2022/07/15 11:48:40;;;;;;;14.68;6.87;;;28.10;99.90;;;;;;1892992;75;21147;-72
2022/07/15 11:51:12;;;;;;;11.57;7.67;;;28.10;99.90;;;;;;1878005;76;21630;-71
2022/07/15 11:53:47;;;;;;;13.75;8.63;;;28.10;99.90;;;;;;1889183;76;21080;-72
2022/07/15 11:56:18;;;;;;;14.10;8.35;;;28.10;99.90;;;;;;1881490;76;21169;-72
2022/07/15 11:58:51;;;;;;;14.75;8.60;;;28.20;99.90;;;;;;1850403;76;21193;-71
2022/07/15 12:01:24;;;;;;;14.05;8.70;;;28.20;99.90;;;;;;1845901;78;21149;-71
2022/07/15 12:03:57;;;;;;;14.30;9.63;;;28.20;99.90;;;;;;1895174;75;21182;-72
2022/07/15 12:06:32;;;;;;;17.40;10.30;;;28.20;99.90;;;;;;1893826;75;21150;-72
2022/07/15 12:09:08;;;;;;;14.70;9.25;;;28.30;99.90;;;;;;1887596;75;21092;-72
2022/07/15 12:11:41;;;;;;;14.93;9.58;;;28.30;99.90;;;;;;1881288;76;21600;-72
2022/07/15 12:14:14;;;;;;;18.50;10.80;;;28.30;99.90;;;;;;1897196;74;21233;-71
2022/07/15 12:16:47;;;;;;;19.48;11.90;;;28.30;99.90;;;;;;1885219;74;21145;-71
2022/07/15 12:19:21;;;;;;;16.60;10.45;;;28.30;99.90;;;;;;1901673;74;21574;-71
2022/07/15 12:21:54;;;;;;;25.12;14.55;;;28.40;99.90;;;;;;1882908;75;21132;-72
2022/07/15 12:24:28;;;;;;;24.72;15.70;;;28.40;99.90;;;;;;1896905;75;21174;-71
2022/07/15 12:27:00;;;;;;;24.60;18.02;;;28.30;99.90;;;;;;1872187;74;21145;-72
2022/07/15 12:29:36;;;;;;;24.67;16.60;;;28.30;99.90;;;;;;1893918;74;21142;-71
2022/07/15 12:32:09;;;;;;;21.10;11.25;;;28.30;99.90;;;;;;1827402;77;21226;-72
2022/07/15 12:34:42;;;;;;;19.10;11.65;;;28.30;99.90;;;;;;1897993;74;21878;-73
2022/07/15 12:37:16;;;;;;;19.87;11.93;;;28.30;99.90;;;;;;1901970;74;21546;-72
2022/07/15 12:39:54;;;;;;;20.10;11.88;;;28.30;99.90;;;;;;1918786;74;21103;-84
2022/07/15 12:42:26;;;;;;;23.73;14.75;;;28.30;99.90;;;;;;1894075;74;21197;-84
2022/07/15 12:45:19;;;;;;;20.10;14.58;;;28.30;99.90;;;;;;1828056;76;21172;-84
2022/07/15 12:48:07;;;;;;;21.02;15.20;;;28.20;99.90;;;;;;1840102;77;21096;-83
2022/07/15 12:50:42;;;;;;;26.50;19.50;;;28.20;99.90;;;;;;1839440;76;21226;-83
2022/07/15 12:53:16;;;;;;;22.65;14.13;;;28.20;99.90;;;;;;1830109;76;21115;-85
2022/07/15 12:55:54;;;;;;;19.10;11.60;;;28.20;99.90;;;;;;1843301;76;21128;-85
2022/07/15 12:58:37;;;;;;;19.77;11.93;;;28.20;99.90;;;;;;1824815;77;21148;-84
2022/07/15 13:01:11;;;;;;;13.65;10.60;;;28.20;99.90;;;;;;1825545;76;21169;-84
2022/07/15 13:03:42;;;;;;;19.00;10.75;;;28.20;99.90;;;;;;1823085;76;21215;-84
2022/07/15 13:06:14;;;;;;;17.37;9.85;;;28.20;99.90;;;;;;1809117;75;21184;-84
2022/07/15 13:08:49;;;;;;;13.13;9.30;;;28.20;99.90;;;;;;1820149;73;21078;-85
2022/07/15 13:11:25;;;;;;;14.47;9.75;;;28.20;99.90;;;;;;1891611;73;21167;-85
2022/07/15 13:16:42;;;;;;;;;;;28.30;99.90;;;;;;1843144;76;21102;-83
2022/07/15 13:19:13;;;;;;;14.93;10.65;;;28.30;99.90;;;;;;1877497;76;20224;-84
2022/07/15 13:22:01;;;;;;;24.98;12.30;;;28.30;99.90;;;;;;1858230;76;21079;-82
2022/07/15 13:24:50;;;;;;;20.73;11.70;;;28.30;99.90;;;;;;1767812;79;21176;-84
2022/07/15 13:27:25;;;;;;;18.48;11.30;;;28.30;99.90;;;;;;1765865;79;21274;-86